Time;durP1;ratioP1;P1;durP2;ratioP2;P2;SDS_P1;SDS_P2;PMS_P1;PMS_P2;Temp;Humidity;BMP_temperature;BMP_pressure;BME280_temperature;BME280_humidity;BME280_pressure;Samples;Min_cycle;Max_cycle;Signal;HPM_P1;HPM_P2
2023/01/02 00:00:40;;;;;;;2.40;2.20;;;;;;;;;;5138830;27;20210;-57
2023/01/02 00:03:08;;;;;;;2.47;2.20;;;;;;;;;;5138822;27;20243;-57
2023/01/02 00:05:36;;;;;;;2.60;2.40;;;;;;;;;;5138661;27;20202;-58
2023/01/02 00:08:06;;;;;;;2.58;2.38;;;;;;;;;;5138627;27;20209;-58
2023/01/02 00:10:33;;;;;;;2.97;2.15;;;;;;;;;;5138285;27;20293;-58
2023/01/02 00:13:01;;;;;;;2.30;2.10;;;;;;;;;;5138120;27;20222;-57
2023/01/02 00:15:29;;;;;;;2.30;2.10;;;;;;;;;;5138640;27;20566;-57
2023/01/02 00:17:57;;;;;;;2.13;1.92;;;;;;;;;;5138896;27;20202;-58
2023/01/02 00:20:24;;;;;;;2.50;2.30;;;;;;;;;;5138529;27;20213;-57
2023/01/02 00:22:52;;;;;;;2.00;1.90;;;;;;;;;;5138534;27;20198;-58
2023/01/02 00:25:21;;;;;;;2.10;2.00;;;;;;;;;;5138683;27;20206;-57
2023/01/02 00:27:49;;;;;;;2.03;1.83;;;;;;;;;;5138072;27;20233;-58
2023/01/02 00:30:17;;;;;;;2.25;2.05;;;;;;;;;;5137949;27;20301;-57
2023/01/02 00:32:45;;;;;;;2.20;2.03;;;;;;;;;;5137433;27;20317;-59
2023/01/02 00:35:12;;;;;;;1.80;1.70;;;;;;;;;;5137995;27;20202;-57
2023/01/02 00:37:40;;;;;;;2.33;2.13;;;;;;;;;;5138459;27;20212;-57
2023/01/02 00:40:12;;;;;;;2.20;2.00;;;;;;;;;;5138496;27;20284;-57
2023/01/02 00:42:41;;;;;;;2.40;2.20;;;;;;;;;;5138558;27;20199;-58
2023/01/02 00:45:10;;;;;;;2.45;2.20;;;;;;;;;;5138303;28;20266;-57
2023/01/02 00:47:38;;;;;;;2.22;2.03;;;;;;;;;;5138538;28;20303;-57
2023/01/02 00:50:06;;;;;;;2.28;2.08;;;;;;;;;;5137629;28;20213;-57
2023/01/02 00:52:34;;;;;;;2.58;2.38;;;;;;;;;;5137486;28;20225;-58
2023/01/02 00:55:02;;;;;;;2.20;2.00;;;;;;;;;;5138464;28;20341;-57
2023/01/02 00:57:30;;;;;;;2.30;2.10;;;;;;;;;;5138345;28;20194;-57
2023/01/02 00:59:59;;;;;;;2.20;2.00;;;;;;;;;;5138045;28;20273;-58
2023/01/02 01:02:27;;;;;;;2.10;2.00;;;;;;;;;;5138052;28;20206;-58
2023/01/02 01:04:54;;;;;;;2.20;2.10;;;;;;;;;;5138055;28;20202;-57
2023/01/02 01:07:22;;;;;;;1.90;1.80;;;;;;;;;;5138125;28;20209;-57
2023/01/02 01:09:50;;;;;;;2.20;2.00;;;;;;;;;;5137842;28;20301;-57
2023/01/02 01:12:17;;;;;;;2.15;2.05;;;;;;;;;;5137655;28;20222;-58
2023/01/02 01:14:45;;;;;;;2.20;2.00;;;;;;;;;;5137913;28;20284;-58
2023/01/02 01:17:14;;;;;;;1.92;1.83;;;;;;;;;;5138040;28;20209;-57
2023/01/02 01:19:42;;;;;;;2.20;2.00;;;;;;;;;;5137601;28;20304;-58
2023/01/02 01:22:10;;;;;;;2.42;2.22;;;;;;;;;;5137395;28;20206;-57
2023/01/02 01:24:38;;;;;;;1.90;1.80;;;;;;;;;;5138441;28;20202;-58
2023/01/02 01:27:05;;;;;;;2.17;1.98;;;;;;;;;;5137904;28;20767;-57
2023/01/02 01:29:33;;;;;;;2.30;2.10;;;;;;;;;;5138075;28;20202;-58
2023/01/02 01:32:01;;;;;;;2.25;2.05;;;;;;;;;;5137318;28;20232;-58
2023/01/02 01:34:30;;;;;;;2.00;1.90;;;;;;;;;;5137845;28;20296;-57
2023/01/02 01:36:58;;;;;;;1.98;1.85;;;;;;;;;;5137659;28;20237;-57
2023/01/02 01:39:25;;;;;;;2.28;1.88;;;;;;;;;;5137840;28;20202;-57
2023/01/02 01:41:53;;;;;;;2.00;1.90;;;;;;;;;;5137878;28;20487;-57
2023/01/02 01:44:39;;;;;;;1.90;1.80;;;;;;;;;;5138566;27;20202;-57
2023/01/02 01:47:11;;;;;;;1.90;1.80;;;;;;;;;;5141586;27;20208;-57
2023/01/02 01:49:40;;;;;;;1.92;1.83;;;;;;;;;;5141722;27;20300;-58
2023/01/02 01:52:09;;;;;;;2.05;1.95;;;;;;;;;;5141124;27;20233;-58
2023/01/02 01:54:40;;;;;;;2.40;2.20;;;;;;;;;;5140747;27;20202;-57
2023/01/02 01:57:10;;;;;;;1.98;1.83;;;;;;;;;;5140317;27;20292;-58
2023/01/02 01:59:38;;;;;;;2.20;2.00;;;;;;;;;;5141002;27;20336;-58
2023/01/02 02:02:07;;;;;;;2.10;1.90;;;;;;;;;;5139858;27;20212;-57
2023/01/02 02:04:35;;;;;;;2.20;2.00;;;;;;;;;;5140507;27;20264;-58
2023/01/02 02:07:04;;;;;;;1.88;1.77;;;;;;;;;;5141438;27;20255;-58
2023/01/02 02:09:34;;;;;;;2.10;1.95;;;;;;;;;;5141141;27;20213;-57
2023/01/02 02:12:02;;;;;;;1.88;1.77;;;;;;;;;;5141050;27;20232;-57
2023/01/02 02:14:30;;;;;;;2.25;2.05;;;;;;;;;;5140743;27;20210;-57
2023/01/02 02:17:02;;;;;;;2.25;2.05;;;;;;;;;;5140829;27;20313;-58
2023/01/02 02:19:48;;;;;;;2.05;1.90;;;;;;;;;;5141121;27;20216;-58
2023/01/02 02:22:33;;;;;;;2.00;1.90;;;;;;;;;;5140701;27;20260;-57
2023/01/02 02:25:19;;;;;;;2.10;1.73;;;;;;;;;;5127225;27;20206;-57
2023/01/02 02:28:04;;;;;;;2.03;1.85;;;;;;;;;;5140375;27;20229;-57
2023/01/02 02:30:35;;;;;;;1.90;1.80;;;;;;;;;;5140350;27;20271;-57
2023/01/02 02:33:17;;;;;;;2.40;2.10;;;;;;;;;;5140476;27;20295;-58
2023/01/02 02:35:50;;;;;;;1.70;1.60;;;;;;;;;;5140664;27;20202;-57
2023/01/02 02:38:22;;;;;;;2.13;1.92;;;;;;;;;;5139913;27;20277;-58
2023/01/02 02:40:57;;;;;;;2.15;1.95;;;;;;;;;;5140276;27;20208;-57
2023/01/02 02:43:28;;;;;;;2.20;2.00;;;;;;;;;;5140313;27;20204;-58
2023/01/02 02:46:01;;;;;;;1.90;1.80;;;;;;;;;;5140115;27;20265;-57
2023/01/02 02:48:32;;;;;;;2.20;2.00;;;;;;;;;;5140235;27;20213;-58
2023/01/02 02:51:02;;;;;;;2.08;1.90;;;;;;;;;;5140445;27;20217;-57
2023/01/02 02:53:33;;;;;;;2.20;2.05;;;;;;;;;;5140474;27;20265;-57
2023/01/02 02:56:03;;;;;;;2.08;1.90;;;;;;;;;;5139110;27;20660;-58
2023/01/02 02:58:31;;;;;;;1.80;1.70;;;;;;;;;;5140097;27;20230;-57
2023/01/02 03:01:04;;;;;;;1.90;1.80;;;;;;;;;;5140322;27;20213;-57
2023/01/02 03:03:32;;;;;;;2.00;1.90;;;;;;;;;;5140038;27;20198;-57
2023/01/02 03:06:19;;;;;;;2.00;1.80;;;;;;;;;;5140077;27;20202;-57
2023/01/02 03:08:52;;;;;;;2.00;1.80;;;;;;;;;;5139455;27;20279;-57
2023/01/02 03:11:21;;;;;;;2.05;1.95;;;;;;;;;;5140027;27;20229;-57
2023/01/02 03:13:56;;;;;;;2.40;1.63;;;;;;;;;;5138340;27;20222;-57
2023/01/02 03:16:28;;;;;;;1.80;1.70;;;;;;;;;;5138846;27;20425;-57
2023/01/02 03:18:59;;;;;;;2.05;1.92;;;;;;;;;;5139571;27;20263;-58
2023/01/02 03:21:30;;;;;;;1.83;1.73;;;;;;;;;;5139646;27;20210;-58
2023/01/02 03:23:59;;;;;;;1.88;1.77;;;;;;;;;;5139497;27;20205;-57
2023/01/02 03:26:29;;;;;;;1.80;1.67;;;;;;;;;;5139836;27;20213;-58
2023/01/02 03:28:59;;;;;;;2.67;1.92;;;;;;;;;;5139464;27;20582;-57
2023/01/02 03:31:28;;;;;;;1.90;1.80;;;;;;;;;;5139400;27;20210;-57
2023/01/02 03:34:00;;;;;;;1.95;1.80;;;;;;;;;;5139482;27;20251;-57
2023/01/02 03:36:28;;;;;;;2.00;1.90;;;;;;;;;;5139649;27;20285;-58
2023/01/02 03:39:00;;;;;;;1.85;1.75;;;;;;;;;;5139646;27;20202;-58
2023/01/02 03:41:30;;;;;;;2.05;1.83;;;;;;;;;;5139606;27;20206;-58
2023/01/02 03:43:59;;;;;;;2.70;1.92;;;;;;;;;;5139561;27;20205;-58
2023/01/02 03:46:33;;;;;;;2.05;1.83;;;;;;;;;;5138500;27;20593;-58
2023/01/02 03:49:03;;;;;;;1.92;1.80;;;;;;;;;;5139087;27;20203;-57
2023/01/02 03:51:30;;;;;;;1.73;1.63;;;;;;;;;;5138940;27;20209;-57
2023/01/02 03:54:00;;;;;;;1.90;1.80;;;;;;;;;;5139070;27;20261;-57
2023/01/02 03:56:32;;;;;;;1.98;1.85;;;;;;;;;;5138872;27;20288;-58
2023/01/02 03:59:06;;;;;;;2.00;1.83;;;;;;;;;;5139252;27;20559;-57
2023/01/02 04:01:43;;;;;;;1.70;1.60;;;;;;;;;;5138799;27;20209;-57
2023/01/02 04:04:13;;;;;;;1.52;1.42;;;;;;;;;;5138799;27;20628;-57
2023/01/02 04:06:44;;;;;;;1.70;1.60;;;;;;;;;;5138482;27;20202;-58
2023/01/02 04:09:13;;;;;;;1.80;1.70;;;;;;;;;;5138462;27;20266;-58
2023/01/02 04:11:42;;;;;;;1.92;1.50;;;;;;;;;;5138271;27;20206;-57
2023/01/02 04:14:12;;;;;;;1.60;1.50;;;;;;;;;;5138444;27;20242;-57
2023/01/02 04:16:42;;;;;;;1.92;1.73;;;;;;;;;;5138628;27;20208;-58
2023/01/02 04:19:11;;;;;;;1.60;1.50;;;;;;;;;;5137272;27;20454;-57
2023/01/02 04:21:40;;;;;;;2.00;1.85;;;;;;;;;;5137771;27;20681;-57
2023/01/02 04:24:09;;;;;;;1.80;1.70;;;;;;;;;;5138607;27;20206;-57
2023/01/02 04:26:41;;;;;;;1.52;1.42;;;;;;;;;;5137860;27;20202;-57
2023/01/02 04:29:09;;;;;;;1.73;1.63;;;;;;;;;;5138264;27;20206;-57
2023/01/02 04:31:38;;;;;;;1.80;1.70;;;;;;;;;;5137200;27;20202;-58
2023/01/02 04:34:10;;;;;;;1.65;1.55;;;;;;;;;;5138031;27;20237;-57
2023/01/02 04:36:39;;;;;;;1.67;1.50;;;;;;;;;;5138319;27;20202;-57
2023/01/02 04:39:06;;;;;;;1.83;1.73;;;;;;;;;;5138167;27;20202;-58
2023/01/02 04:41:34;;;;;;;1.58;1.48;;;;;;;;;;5138028;27;20248;-57
2023/01/02 04:44:02;;;;;;;1.65;1.55;;;;;;;;;;5137735;27;20202;-57
2023/01/02 04:46:30;;;;;;;1.60;1.50;;;;;;;;;;5137975;28;20206;-58
2023/01/02 04:48:58;;;;;;;1.48;1.38;;;;;;;;;;5137513;28;20202;-57
2023/01/02 04:51:27;;;;;;;1.98;1.63;;;;;;;;;;5137418;28;20202;-57
2023/01/02 04:53:55;;;;;;;1.58;1.48;;;;;;;;;;5137752;28;20609;-57
2023/01/02 04:56:23;;;;;;;1.52;1.42;;;;;;;;;;5137953;28;20288;-57
2023/01/02 04:58:51;;;;;;;1.48;1.38;;;;;;;;;;5137312;28;20580;-58
2023/01/02 05:01:19;;;;;;;1.40;1.30;;;;;;;;;;5137385;28;20592;-57
2023/01/02 05:03:47;;;;;;;1.67;1.58;;;;;;;;;;5137387;28;20198;-57
2023/01/02 05:06:15;;;;;;;1.75;1.45;;;;;;;;;;5137756;28;20202;-57
2023/01/02 05:08:44;;;;;;;1.63;1.52;;;;;;;;;;5138102;28;20204;-58
2023/01/02 05:11:12;;;;;;;1.67;1.58;;;;;;;;;;5137245;28;20290;-58
2023/01/02 05:13:40;;;;;;;1.60;1.50;;;;;;;;;;5137570;28;20279;-58
2023/01/02 05:16:08;;;;;;;1.35;1.25;;;;;;;;;;5137628;28;20208;-57
2023/01/02 05:18:35;;;;;;;1.45;1.35;;;;;;;;;;5137852;27;20202;-57
2023/01/02 05:21:04;;;;;;;1.60;1.50;;;;;;;;;;5141692;27;20202;-57
2023/01/02 05:23:48;;;;;;;1.33;1.23;;;;;;;;;;5141293;27;20293;-57
2023/01/02 05:26:17;;;;;;;1.30;1.20;;;;;;;;;;5141769;27;20209;-57
2023/01/02 05:28:45;;;;;;;1.45;1.35;;;;;;;;;;5141745;27;20293;-58
2023/01/02 05:31:13;;;;;;;1.35;1.23;;;;;;;;;;5140661;27;20293;-57
2023/01/02 05:33:40;;;;;;;1.50;1.40;;;;;;;;;;5141093;27;20309;-58
2023/01/02 05:36:09;;;;;;;1.30;1.20;;;;;;;;;;5141002;27;20506;-57
2023/01/02 05:38:38;;;;;;;1.40;1.30;;;;;;;;;;5141093;27;20293;-57
2023/01/02 05:41:06;;;;;;;1.48;1.38;;;;;;;;;;5140724;27;20613;-57
2023/01/02 05:43:36;;;;;;;1.23;1.13;;;;;;;;;;5141207;27;20203;-57
2023/01/02 05:46:08;;;;;;;1.40;1.30;;;;;;;;;;5141095;27;20216;-58
2023/01/02 05:48:35;;;;;;;1.60;1.50;;;;;;;;;;5140754;27;20202;-58
2023/01/02 05:51:03;;;;;;;1.58;1.40;;;;;;;;;;5141171;27;20265;-58
2023/01/02 05:53:30;;;;;;;1.52;1.42;;;;;;;;;;5140552;27;20476;-58
2023/01/02 05:56:04;;;;;;;1.30;1.20;;;;;;;;;;5140382;27;20578;-57
2023/01/02 05:58:31;;;;;;;1.70;1.60;;;;;;;;;;5140292;27;20269;-64
2023/01/02 06:01:05;;;;;;;1.70;1.60;;;;;;;;;;5140466;27;20293;-57
2023/01/02 06:03:32;;;;;;;1.42;1.33;;;;;;;;;;5140764;27;20582;-58
2023/01/02 06:06:03;;;;;;;1.40;1.30;;;;;;;;;;5139987;27;20229;-57
2023/01/02 06:08:30;;;;;;;1.40;1.30;;;;;;;;;;5139872;27;20214;-57
2023/01/02 06:10:58;;;;;;;1.60;1.50;;;;;;;;;;5140234;27;20305;-57
2023/01/02 06:13:26;;;;;;;1.40;1.30;;;;;;;;;;5139217;27;20629;-57
2023/01/02 06:15:55;;;;;;;1.40;1.30;;;;;;;;;;5138694;27;20297;-57
2023/01/02 06:18:24;;;;;;;1.30;1.20;;;;;;;;;;5139325;27;20202;-57
2023/01/02 06:20:52;;;;;;;1.40;1.30;;;;;;;;;;5139134;27;20203;-57
2023/01/02 06:23:19;;;;;;;1.20;1.10;;;;;;;;;;5138953;27;20213;-57
2023/01/02 06:25:46;;;;;;;1.40;1.30;;;;;;;;;;5139007;27;20201;-57
2023/01/02 06:28:14;;;;;;;1.80;1.40;;;;;;;;;;5139423;27;20228;-57
2023/01/02 06:30:41;;;;;;;1.30;1.20;;;;;;;;;;5138329;27;20536;-57
2023/01/02 06:33:09;;;;;;;1.40;1.30;;;;;;;;;;5139510;27;20289;-57
2023/01/02 06:35:37;;;;;;;1.42;1.33;;;;;;;;;;5139461;27;20222;-57
2023/01/02 06:38:05;;;;;;;1.50;1.40;;;;;;;;;;5139488;27;20678;-57
2023/01/02 06:40:33;;;;;;;1.42;1.33;;;;;;;;;;5139282;27;20206;-58
2023/01/02 06:43:00;;;;;;;1.38;1.27;;;;;;;;;;5139384;27;20609;-58
2023/01/02 06:45:27;;;;;;;1.40;1.30;;;;;;;;;;5138988;27;20261;-57
2023/01/02 06:47:59;;;;;;;1.30;1.20;;;;;;;;;;5138385;27;20194;-58
2023/01/02 06:50:26;;;;;;;1.20;1.10;;;;;;;;;;5139343;27;20198;-58
2023/01/02 06:52:55;;;;;;;1.15;1.08;;;;;;;;;;5138965;27;20217;-58
2023/01/02 06:55:22;;;;;;;1.27;1.17;;;;;;;;;;5139824;27;20218;-58
2023/01/02 06:57:50;;;;;;;1.30;1.20;;;;;;;;;;5139866;27;20297;-58
2023/01/02 07:00:18;;;;;;;1.33;1.23;;;;;;;;;;5140047;27;20629;-57
2023/01/02 07:02:45;;;;;;;1.00;1.00;;;;;;;;;;5139463;27;20202;-57
2023/01/02 07:05:13;;;;;;;1.48;1.10;;;;;;;;;;5139178;27;20194;-57
2023/01/02 07:07:40;;;;;;;1.23;1.13;;;;;;;;;;5138995;27;20301;-57
2023/01/02 07:10:09;;;;;;;1.55;1.27;;;;;;;;;;5139162;27;20297;-58
2023/01/02 07:12:37;;;;;;;1.30;1.20;;;;;;;;;;5139458;27;20600;-57
2023/01/02 07:15:05;;;;;;;1.40;1.30;;;;;;;;;;5138855;27;20367;-58
2023/01/02 07:17:33;;;;;;;1.20;1.10;;;;;;;;;;5138907;27;20285;-57
2023/01/02 07:20:01;;;;;;;1.23;1.13;;;;;;;;;;5138631;27;20293;-58
2023/01/02 07:22:28;;;;;;;1.42;1.33;;;;;;;;;;5139527;27;20300;-57
2023/01/02 07:24:56;;;;;;;1.80;1.30;;;;;;;;;;5159651;27;20201;-57
2023/01/02 07:27:25;;;;;;;1.95;1.20;;;;;;;;;;5159499;27;20215;-58
2023/01/02 07:29:53;;;;;;;2.47;1.13;;;;;;;;;;5159805;27;20809;-58
2023/01/02 07:32:20;;;;;;;1.73;1.50;;;;;;;;;;5159291;27;20241;-58
2023/01/02 07:34:48;;;;;;;1.45;1.35;;;;;;;;;;5151276;27;20224;-58
2023/01/02 07:37:15;;;;;;;1.50;1.40;;;;;;;;;;5142436;27;20262;-58
2023/01/02 07:39:42;;;;;;;1.50;1.30;;;;;;;;;;5138196;27;20483;-58
2023/01/02 07:42:10;;;;;;;1.60;1.25;;;;;;;;;;5137745;27;20210;-57
2023/01/02 07:44:39;;;;;;;1.60;1.20;;;;;;;;;;5137560;27;20194;-58
2023/01/02 07:47:06;;;;;;;1.63;1.45;;;;;;;;;;5137205;27;20301;-57
2023/01/02 07:49:34;;;;;;;1.60;1.50;;;;;;;;;;5137709;27;20202;-58
2023/01/02 07:52:01;;;;;;;1.50;1.33;;;;;;;;;;5137860;27;20566;-58
2023/01/02 07:54:29;;;;;;;1.35;1.25;;;;;;;;;;5137830;27;20222;-57
2023/01/02 07:56:56;;;;;;;1.45;1.30;;;;;;;;;;5137094;27;20194;-58
2023/01/02 07:59:24;;;;;;;1.52;1.42;;;;;;;;;;5138105;27;20249;-58
2023/01/02 08:01:52;;;;;;;1.48;1.38;;;;;;;;;;5138583;27;20256;-58
2023/01/02 08:04:20;;;;;;;1.50;1.40;;;;;;;;;;5138705;27;20313;-57
2023/01/02 08:06:47;;;;;;;1.50;1.40;;;;;;;;;;5138290;27;20206;-58
2023/01/02 08:09:15;;;;;;;1.38;1.27;;;;;;;;;;5137599;27;20225;-57
2023/01/02 08:11:42;;;;;;;1.58;1.13;;;;;;;;;;5138003;27;20202;-58
2023/01/02 08:14:10;;;;;;;1.55;1.20;;;;;;;;;;5137028;27;20554;-58
2023/01/02 08:16:37;;;;;;;1.42;1.33;;;;;;;;;;5137672;27;20290;-57
2023/01/02 08:19:06;;;;;;;1.40;1.30;;;;;;;;;;5138448;27;20301;-57
2023/01/02 08:21:33;;;;;;;1.30;1.20;;;;;;;;;;5137610;27;20202;-61
2023/01/02 08:24:01;;;;;;;1.50;1.40;;;;;;;;;;5137003;27;20198;-58
2023/01/02 08:26:29;;;;;;;1.30;1.13;;;;;;;;;;5137563;27;20217;-58
2023/01/02 08:28:56;;;;;;;2.08;1.20;;;;;;;;;;5138005;27;20293;-57
2023/01/02 08:31:23;;;;;;;1.40;1.20;;;;;;;;;;5137302;27;20203;-58
2023/01/02 08:33:51;;;;;;;1.52;1.42;;;;;;;;;;5137639;27;20226;-57
2023/01/02 08:36:20;;;;;;;1.25;1.15;;;;;;;;;;5137441;27;20233;-57
2023/01/02 08:38:47;;;;;;;1.27;1.20;;;;;;;;;;5137029;27;20544;-58
2023/01/02 08:41:15;;;;;;;2.97;1.30;;;;;;;;;;5137120;27;20292;-57
2023/01/02 08:43:42;;;;;;;1.60;1.30;;;;;;;;;;5136968;27;20664;-57
2023/01/02 08:46:10;;;;;;;2.67;1.67;;;;;;;;;;5136556;27;20533;-57
2023/01/02 08:48:38;;;;;;;1.73;1.20;;;;;;;;;;5137062;28;20617;-58
2023/01/02 08:51:06;;;;;;;1.75;1.20;;;;;;;;;;5136722;28;20244;-58
2023/01/02 08:53:35;;;;;;;1.30;1.20;;;;;;;;;;5137510;27;20297;-58
2023/01/02 08:56:21;;;;;;;1.30;1.20;;;;;;;;;;5140691;27;20226;-58
2023/01/02 08:58:52;;;;;;;1.40;1.30;;;;;;;;;;5140811;27;20237;-58
2023/01/02 09:01:19;;;;;;;1.92;1.40;;;;;;;;;;5139695;27;20305;-58
2023/01/02 09:03:47;;;;;;;1.20;1.10;;;;;;;;;;5140122;27;20628;-58
2023/01/02 09:06:14;;;;;;;1.58;1.48;;;;;;;;;;5140850;27;20719;-58
2023/01/02 09:08:43;;;;;;;1.48;1.00;;;;;;;;;;5140933;27;20300;-58
2023/01/02 09:11:12;;;;;;;1.40;1.27;;;;;;;;;;5140614;27;20208;-57
2023/01/02 09:13:39;;;;;;;1.30;1.20;;;;;;;;;;5140315;27;20198;-57
2023/01/02 09:16:07;;;;;;;1.77;1.42;;;;;;;;;;5140091;27;20213;-58
2023/01/02 09:18:34;;;;;;;1.27;1.10;;;;;;;;;;5139090;27;20764;-57
2023/01/02 09:21:02;;;;;;;2.55;1.60;;;;;;;;;;5140774;27;20288;-58
2023/01/02 09:23:30;;;;;;;1.27;1.17;;;;;;;;;;5140682;27;20202;-57
2023/01/02 09:26:00;;;;;;;1.50;1.20;;;;;;;;;;5140277;27;20340;-58
2023/01/02 09:28:27;;;;;;;1.85;1.50;;;;;;;;;;5148395;27;20293;-57
2023/01/02 09:30:55;;;;;;;1.17;1.08;;;;;;;;;;5149367;27;20205;-57
2023/01/02 09:33:23;;;;;;;1.73;1.10;;;;;;;;;;5150528;27;20289;-58
2023/01/02 09:35:50;;;;;;;1.80;1.45;;;;;;;;;;5127972;27;20314;-58
2023/01/02 09:38:18;;;;;;;1.15;1.05;;;;;;;;;;5127001;27;20199;-58
2023/01/02 09:40:48;;;;;;;1.45;1.10;;;;;;;;;;5118472;28;20297;-58
2023/01/02 09:43:19;;;;;;;2.10;1.40;;;;;;;;;;5118616;28;20496;-58
2023/01/02 09:45:47;;;;;;;1.55;1.33;;;;;;;;;;5118843;28;20203;-57
2023/01/02 09:48:16;;;;;;;1.70;1.30;;;;;;;;;;5118207;28;20709;-57
2023/01/02 09:50:46;;;;;;;1.25;1.15;;;;;;;;;;5119459;28;20285;-58
2023/01/02 09:53:14;;;;;;;1.27;1.17;;;;;;;;;;5118882;28;20218;-58
2023/01/02 09:55:46;;;;;;;1.30;1.20;;;;;;;;;;5117980;28;20327;-58
2023/01/02 09:58:19;;;;;;;1.77;1.38;;;;;;;;;;5117787;28;20483;-58
2023/01/02 10:00:48;;;;;;;1.30;1.20;;;;;;;;;;5118665;28;20226;-57
2023/01/02 10:03:19;;;;;;;1.23;1.13;;;;;;;;;;5118059;28;20233;-57
2023/01/02 10:06:01;;;;;;;1.48;1.33;;;;;;;;;;5117925;28;20293;-58
2023/01/02 10:08:32;;;;;;;1.30;1.20;;;;;;;;;;5113829;28;20202;-58
2023/01/02 10:11:04;;;;;;;1.63;1.50;;;;;;;;;;5117043;28;20285;-58
2023/01/02 10:13:36;;;;;;;1.67;1.45;;;;;;;;;;5116916;28;20199;-57
2023/01/02 10:16:04;;;;;;;1.40;1.30;;;;;;;;;;5117403;28;20595;-57
2023/01/02 10:18:33;;;;;;;1.60;1.42;;;;;;;;;;5118519;28;20301;-58
2023/01/02 10:21:02;;;;;;;1.25;1.15;;;;;;;;;;5118005;28;20298;-58
2023/01/02 10:23:34;;;;;;;1.30;1.15;;;;;;;;;;5118631;28;20199;-58
2023/01/02 10:26:04;;;;;;;1.42;1.33;;;;;;;;;;5118492;28;20225;-58
2023/01/02 10:28:41;;;;;;;1.23;1.13;;;;;;;;;;5117923;28;20253;-58
2023/01/02 10:31:10;;;;;;;1.33;1.23;;;;;;;;;;5117117;28;20286;-58
2023/01/02 10:33:43;;;;;;;1.40;1.20;;;;;;;;;;5117054;28;20221;-58
2023/01/02 10:36:14;;;;;;;1.42;1.33;;;;;;;;;;5117257;28;20229;-58
2023/01/02 10:38:41;;;;;;;1.40;1.30;;;;;;;;;;5117353;28;20370;-58
2023/01/02 10:41:09;;;;;;;2.03;1.60;;;;;;;;;;5117809;28;20696;-58
2023/01/02 10:43:38;;;;;;;1.45;1.35;;;;;;;;;;5117120;28;20573;-58
2023/01/02 10:46:06;;;;;;;1.40;1.30;;;;;;;;;;5117201;28;20202;-58
2023/01/02 10:48:35;;;;;;;1.90;1.17;;;;;;;;;;5116779;28;20242;-58
2023/01/02 10:51:03;;;;;;;1.40;1.30;;;;;;;;;;5117693;28;20211;-58
2023/01/02 10:53:32;;;;;;;1.30;1.20;;;;;;;;;;5118007;28;20267;-58
2023/01/02 10:56:03;;;;;;;1.98;1.35;;;;;;;;;;5117188;28;20226;-58
2023/01/02 10:58:31;;;;;;;1.30;1.20;;;;;;;;;;5116607;28;20289;-57
2023/01/02 11:01:06;;;;;;;1.50;1.40;;;;;;;;;;5117353;28;20207;-57
2023/01/02 11:03:33;;;;;;;3.25;1.45;;;;;;;;;;5116914;28;20198;-59
2023/01/02 11:06:01;;;;;;;1.60;1.50;;;;;;;;;;5116662;28;20191;-59
2023/01/02 11:08:36;;;;;;;1.63;1.48;;;;;;;;;;5116495;28;20301;-60
2023/01/02 11:11:13;;;;;;;3.28;1.75;;;;;;;;;;5116847;28;20294;-61
2023/01/02 11:13:45;;;;;;;1.90;1.40;;;;;;;;;;5115812;28;20290;-64
2023/01/02 11:16:14;;;;;;;1.40;1.30;;;;;;;;;;5107608;28;20219;-60
2023/01/02 11:18:44;;;;;;;1.35;1.17;;;;;;;;;;5115629;28;20298;-60
2023/01/02 11:21:11;;;;;;;1.73;1.15;;;;;;;;;;5116609;28;20199;-60
2023/01/02 11:23:41;;;;;;;1.45;1.20;;;;;;;;;;5115732;28;20292;-60
2023/01/02 11:26:13;;;;;;;1.55;1.38;;;;;;;;;;5116244;28;20286;-60
2023/01/02 11:28:41;;;;;;;1.73;1.33;;;;;;;;;;5116129;28;20203;-60
2023/01/02 11:31:10;;;;;;;1.52;1.33;;;;;;;;;;5116114;28;20202;-59
2023/01/02 11:33:39;;;;;;;1.77;1.30;;;;;;;;;;5116563;28;20289;-59
2023/01/02 11:36:07;;;;;;;3.75;1.40;;;;;;;;;;5116058;28;20219;-60
2023/01/02 11:38:45;;;;;;;1.75;1.50;;;;;;;;;;5116352;28;20199;-59
2023/01/02 11:43:47;;;;;;;1.70;1.27;;;;;;;;;;5107884;28;20309;-60
2023/01/02 11:44:14;;;;;;;1.48;1.33;;;;;;;;;;5115627;28;20668;-60
2023/01/02 11:46:41;;;;;;;1.42;1.33;;;;;;;;;;5116260;28;20806;-60
2023/01/02 11:49:14;;;;;;;1.40;1.30;;;;;;;;;;5115828;28;20249;-59
2023/01/02 11:51:41;;;;;;;1.40;1.30;;;;;;;;;;5115747;28;20571;-60
2023/01/02 11:54:13;;;;;;;2.40;1.27;;;;;;;;;;5115200;28;20199;-60
2023/01/02 11:56:41;;;;;;;1.40;1.30;;;;;;;;;;5115714;28;20659;-60
2023/01/02 11:59:14;;;;;;;1.60;1.50;;;;;;;;;;5115108;28;20226;-60
2023/01/02 12:01:49;;;;;;;1.30;1.20;;;;;;;;;;5115978;28;20198;-60
2023/01/02 12:04:17;;;;;;;1.73;1.40;;;;;;;;;;5115810;28;20600;-60
2023/01/02 12:06:58;;;;;;;1.88;1.40;;;;;;;;;;5114942;28;20298;-60
2023/01/02 12:09:31;;;;;;;1.40;1.30;;;;;;;;;;5115226;28;20199;-60
2023/01/02 12:12:04;;;;;;;1.20;1.10;;;;;;;;;;5115843;28;20203;-60
2023/01/02 12:14:42;;;;;;;1.35;1.25;;;;;;;;;;5115171;28;20617;-60
2023/01/02 12:17:13;;;;;;;2.15;1.35;;;;;;;;;;5115767;28;20614;-60
2023/01/02 12:19:48;;;;;;;1.35;1.23;;;;;;;;;;5114998;28;20297;-60
2023/01/02 12:22:25;;;;;;;1.60;1.50;;;;;;;;;;5114912;28;20640;-60
2023/01/02 12:25:06;;;;;;;2.38;1.50;;;;;;;;;;5114702;28;20316;-60
2023/01/02 12:27:36;;;;;;;2.13;1.35;;;;;;;;;;5115940;28;20301;-60
2023/01/02 12:30:08;;;;;;;1.65;1.30;;;;;;;;;;5113977;28;20283;-60
2023/01/02 12:32:45;;;;;;;1.50;1.40;;;;;;;;;;5114732;28;20229;-60
2023/01/02 12:35:22;;;;;;;1.30;1.20;;;;;;;;;;5114475;28;20198;-60
2023/01/02 12:37:51;;;;;;;1.40;1.30;;;;;;;;;;5115563;28;20202;-60
2023/01/02 12:40:28;;;;;;;1.65;1.20;;;;;;;;;;5114407;28;20203;-60
2023/01/02 12:43:06;;;;;;;2.75;1.55;;;;;;;;;;5115188;28;20195;-60
2023/01/02 12:45:36;;;;;;;1.63;1.52;;;;;;;;;;5115432;28;20572;-60
2023/01/02 12:48:12;;;;;;;1.30;1.20;;;;;;;;;;5114624;28;20202;-60
2023/01/02 12:50:48;;;;;;;1.50;1.40;;;;;;;;;;5113779;28;20202;-60
2023/01/02 12:53:22;;;;;;;1.45;1.35;;;;;;;;;;5113787;28;20203;-60
2023/01/02 12:55:56;;;;;;;1.50;1.40;;;;;;;;;;5115153;28;20344;-60
2023/01/02 12:58:30;;;;;;;1.90;1.23;;;;;;;;;;5113530;28;20203;-60
2023/01/02 13:01:05;;;;;;;1.58;1.48;;;;;;;;;;5113511;28;20202;-60
2023/01/02 13:03:43;;;;;;;1.55;1.30;;;;;;;;;;5114570;28;20295;-60
2023/01/02 13:06:14;;;;;;;1.50;1.27;;;;;;;;;;5114752;28;20291;-60
2023/01/02 13:08:47;;;;;;;1.45;1.35;;;;;;;;;;5114481;28;20201;-60
2023/01/02 13:11:15;;;;;;;1.52;1.40;;;;;;;;;;5113613;28;20213;-60
2023/01/02 13:13:43;;;;;;;1.50;1.30;;;;;;;;;;5115140;28;20206;-60
2023/01/02 13:16:13;;;;;;;1.50;1.33;;;;;;;;;;5113915;28;20233;-60
2023/01/02 13:18:46;;;;;;;1.80;1.23;;;;;;;;;;5114398;28;20230;-60
2023/01/02 13:21:17;;;;;;;2.15;1.50;;;;;;;;;;5114192;28;20205;-60
2023/01/02 13:23:46;;;;;;;1.33;1.23;;;;;;;;;;5112903;28;20298;-60
2023/01/02 13:26:15;;;;;;;1.65;1.55;;;;;;;;;;5113840;28;20203;-60
2023/01/02 13:28:43;;;;;;;1.20;1.10;;;;;;;;;;5113727;28;20465;-60
2023/01/02 13:31:11;;;;;;;1.42;1.10;;;;;;;;;;5113632;28;20199;-60
2023/01/02 13:33:40;;;;;;;1.20;1.10;;;;;;;;;;5113688;28;20301;-60
2023/01/02 13:36:21;;;;;;;1.27;1.17;;;;;;;;;;5114323;28;20232;-60
2023/01/02 13:38:51;;;;;;;1.85;1.60;;;;;;;;;;5113790;28;20297;-63
2023/01/02 13:41:19;;;;;;;1.40;1.30;;;;;;;;;;5116251;28;20203;-60
2023/01/02 13:43:49;;;;;;;2.38;1.50;;;;;;;;;;5117410;28;20199;-60
2023/01/02 13:46:21;;;;;;;1.40;1.30;;;;;;;;;;5118350;28;20290;-60
2023/01/02 13:48:51;;;;;;;1.30;1.20;;;;;;;;;;5117754;28;20202;-60
2023/01/02 13:51:23;;;;;;;1.25;1.13;;;;;;;;;;5116772;28;20561;-60
2023/01/02 13:53:52;;;;;;;1.50;1.40;;;;;;;;;;5117390;28;20205;-60
2023/01/02 13:56:20;;;;;;;1.35;1.25;;;;;;;;;;5117392;28;20621;-60
2023/01/02 13:58:53;;;;;;;1.50;1.40;;;;;;;;;;5117405;28;20246;-60
2023/01/02 14:01:32;;;;;;;1.15;1.05;;;;;;;;;;5117202;28;20299;-60
2023/01/02 14:04:19;;;;;;;1.33;1.23;;;;;;;;;;5117688;28;20536;-60
2023/01/02 14:06:48;;;;;;;1.30;1.20;;;;;;;;;;5117375;28;20201;-60
2023/01/02 14:09:16;;;;;;;1.33;1.10;;;;;;;;;;5117061;28;20213;-60
2023/01/02 14:11:46;;;;;;;1.40;1.30;;;;;;;;;;5116440;28;20206;-60
2023/01/02 14:14:16;;;;;;;1.30;1.20;;;;;;;;;;5117413;28;20607;-60
2023/01/02 14:17:02;;;;;;;2.15;1.33;;;;;;;;;;5136062;27;20313;-60
2023/01/02 14:19:30;;;;;;;1.20;1.10;;;;;;;;;;5154723;27;20288;-60
2023/01/02 14:22:11;;;;;;;1.30;1.20;;;;;;;;;;5158121;27;20619;-60
2023/01/02 14:24:41;;;;;;;1.35;1.17;;;;;;;;;;5156720;27;20194;-60
2023/01/02 14:27:19;;;;;;;1.40;1.20;;;;;;;;;;5143667;27;20201;-60
2023/01/02 14:29:48;;;;;;;1.60;1.50;;;;;;;;;;5136605;27;20448;-60
2023/01/02 14:32:19;;;;;;;1.33;1.23;;;;;;;;;;5136797;27;20309;-60
2023/01/02 14:34:47;;;;;;;1.63;1.50;;;;;;;;;;5137233;27;20203;-60
2023/01/02 14:37:27;;;;;;;1.48;1.35;;;;;;;;;;5138026;27;20222;-60
2023/01/02 14:39:54;;;;;;;1.38;1.27;;;;;;;;;;5137386;27;20220;-60
2023/01/02 14:45:19;;;;;;;1.35;1.25;;;;;;;;;;5137055;27;20731;-59
2023/01/02 14:47:49;;;;;;;1.15;1.00;;;;;;;;;;5136781;27;20208;-59
2023/01/02 14:50:20;;;;;;;1.20;1.10;;;;;;;;;;5135705;27;20304;-59
2023/01/02 14:52:51;;;;;;;1.15;1.05;;;;;;;;;;5135722;27;20200;-60
2023/01/02 14:55:20;;;;;;;1.00;1.00;;;;;;;;;;5136746;27;20491;-60
2023/01/02 14:57:49;;;;;;;1.20;1.10;;;;;;;;;;5136921;27;20313;-60
2023/01/02 15:00:19;;;;;;;1.45;1.10;;;;;;;;;;5137178;27;20241;-60
2023/01/02 15:02:48;;;;;;;1.30;1.20;;;;;;;;;;5137825;27;20454;-60